»·PEaware :: N3159J KTOA-KPOC

N3159J :: KTOA-KPOC

FLIGHT INFORMATION

Flight Status: Arrived
Operator: Privately registered:
United States
More flights under this callsign
Pilot: David D. (37029)
Aircraft: CESSNA 150 COMMUTER AEROBAT
(C150)
More flights by this aircraft type
Origin: KTOA Zamperini
United States
Destination: KPOC Brackett
United States
More flights between these airports :: More routes between these airports
Route: LAX170 LIMBO V64 SLI V8 POXKU V363 POM
File this flight plan on PilotEdge
Remarks:
Altitude:
(Current/Filed)
5,000ft
Speed:
(Current/Filed)
100kts
Departed: 14-Jul-23 02:36 PM
Arrived: 14-Jul-23 03:26 PM
Distance/Time
Traveled:
33nm/0:50
Distance/Time
To Go:
Arrived

Flight Plot

Page will automatically refresh every two minutes.

Flight plan parsing failed; only flown route is shown


Map Options




Map Legend


Flown Route
Filed Route
Departure Airport
Arrival Airport
Navaid (VOR, NDB)
Fix

Horizontal Profiles

Position Reports

Time Latitude Longitude Heading Altitude Ground
Speed
14-Jul-23 14:19 33.801601 -118.341419 218 113ft 0kts
14-Jul-23 14:20 33.801601 -118.341419 218 113ft 0kts
14-Jul-23 14:21 33.801601 -118.341419 218 113ft 0kts
14-Jul-23 14:22 33.801601 -118.341419 218 113ft 0kts
14-Jul-23 14:23 33.801601 -118.341419 218 113ft 0kts
14-Jul-23 14:24 33.801601 -118.341419 218 113ft 0kts
14-Jul-23 14:25 33.801601 -118.341419 218 113ft 0kts
14-Jul-23 14:26 33.801601 -118.341419 218 113ft 0kts
14-Jul-23 14:27 33.801601 -118.341419 218 113ft 0kts
14-Jul-23 14:28 33.800888 -118.339985 95 110ft 11kts
14-Jul-23 14:29 33.799498 -118.336727 128 107ft 8kts
14-Jul-23 14:30 33.798419 -118.335094 129 110ft 6kts
14-Jul-23 14:31 33.799058 -118.333333 39 101ft 0kts
14-Jul-23 14:32 33.799058 -118.333333 39 101ft 0kts
14-Jul-23 14:33 33.799058 -118.333333 40 101ft 0kts
14-Jul-23 14:34 33.800027 -118.333571 308 99ft 23kts
14-Jul-23 14:35 33.811701 -118.348690 308 758ft 64kts
14-Jul-23 14:36 33.824093 -118.364492 304 1570ft 64kts
14-Jul-23 14:37 33.836907 -118.381134 309 2289ft 72kts
14-Jul-23 14:38 33.852708 -118.397199 307 2993ft 74kts
14-Jul-23 14:39 33.869290 -118.413864 313 3662ft 80kts
14-Jul-23 14:40 33.887005 -118.430780 301 4370ft 80kts
14-Jul-23 14:41 33.874785 -118.437502 182 4993ft 68kts
14-Jul-23 14:42 33.852394 -118.436187 187 5050ft 91kts
14-Jul-23 14:43 33.827795 -118.434590 131 4930ft 107kts
14-Jul-23 14:44 33.823364 -118.399166 108 5000ft 98kts
14-Jul-23 14:45 33.821754 -118.363580 89 4949ft 107kts
14-Jul-23 14:46 33.826997 -118.326325 90 4790ft 114kts
14-Jul-23 14:47 33.829040 -118.290201 92 4828ft 108kts
14-Jul-23 14:48 33.830864 -118.256165 98 4964ft 99kts
14-Jul-23 14:49 33.832170 -118.222547 95 5015ft 101kts
14-Jul-23 14:50 33.834164 -118.188797 94 5042ft 101kts
14-Jul-23 14:51 33.836063 -118.154648 99 4991ft 101kts
14-Jul-23 14:52 33.834989 -118.121130 100 4944ft 99kts
14-Jul-23 14:53 33.833885 -118.087994 100 4899ft 98kts
14-Jul-23 14:54 33.832735 -118.055201 100 4847ft 98kts
14-Jul-23 14:55 33.831606 -118.022490 100 4805ft 98kts
14-Jul-23 14:56 33.830394 -117.990931 100 4887ft 92kts
14-Jul-23 14:57 33.829342 -117.960488 100 4999ft 91kts
14-Jul-23 14:58 33.828287 -117.929817 100 5069ft 92kts
14-Jul-23 14:59 33.834409 -117.898935 69 5064ft 103kts
14-Jul-23 15:00 33.844241 -117.866528 81 4975ft 104kts
14-Jul-23 15:01 33.850514 -117.832791 87 4867ft 103kts
14-Jul-23 15:02 33.855186 -117.799062 88 4823ft 101kts
14-Jul-23 15:03 33.860376 -117.766094 86 4859ft 100kts
14-Jul-23 15:04 33.866180 -117.733281 85 4913ft 101kts
14-Jul-23 15:05 33.872405 -117.699993 85 4961ft 102kts
14-Jul-23 15:06 33.878695 -117.666176 85 5000ft 104kts
14-Jul-23 15:07 33.889096 -117.632588 75 5036ft 108kts
14-Jul-23 15:08 33.901792 -117.599010 70 5040ft 112kts
14-Jul-23 15:09 33.914803 -117.564986 70 5051ft 112kts
14-Jul-23 15:10 33.928366 -117.530867 53 5024ft 117kts
14-Jul-23 15:11 33.959598 -117.523914 359 4789ft 118kts
14-Jul-23 15:12 33.992672 -117.522979 354 4379ft 117kts
14-Jul-23 15:13 34.025436 -117.523314 354 3984ft 117kts
14-Jul-23 15:14 34.056424 -117.523453 354 3908ft 110kts
14-Jul-23 15:15 34.081245 -117.532626 268 3797ft 92kts
14-Jul-23 15:16 34.082702 -117.562741 268 3516ft 90kts
14-Jul-23 15:17 34.082561 -117.592624 264 3183ft 86kts
14-Jul-23 15:18 34.083437 -117.621366 267 3148ft 86kts
14-Jul-23 15:19 34.084972 -117.650474 267 3088ft 87kts
14-Jul-23 15:20 34.086196 -117.677784 269 3019ft 78kts
14-Jul-23 15:21 34.088204 -117.706483 271 2518ft 85kts
14-Jul-23 15:22 34.089100 -117.734148 267 1872ft 75kts
14-Jul-23 15:23 34.090155 -117.757665 276 1406ft 69kts
14-Jul-23 15:24 34.091129 -117.778214 273 1003ft 46kts
14-Jul-23 15:25 34.090936 -117.782343 230 993ft 0kts
14-Jul-23 15:26 34.090585 -117.780954 91 996ft 8kts
14-Jul-23 15:27 34.090087 -117.779741 48 999ft 2kts
14-Jul-23 15:28 34.090186 -117.779713 0 999ft 0kts

Navigation Log

Ident Type
Flight plan parsing failed, navigation log unavailable